Lausanne, Switzerland
Current Conditions -  °F | °C
As of 11:50 AM on Friday 24 Oct 2014 (Local Time) from LSMP Reporting Station
Broken Clouds Broken Clouds  
Wind Chill: 39°   Ceiling: 800
Heat Index: 43°   Visibility: 6mi
Dew Point: 39°   Wind: 6mph
Humidity: 87%   Direction: 50°NE
Pressure: 30.18"   Gusts: NA
Location:  46.52°N, 6.62°E
Report Text: LSMP 240950Z 05005KT 020V080 9000 BKN008 06/04 Q1022 RMK YLO
Loading
Personal Weather Stations






























Interactive Weather Map
Tropical Storm Tracking
New forecast layout! Learn more

10-Day Weather Forecast

Advertisements
Track Severe Weather on mobile